sensor_id;sensor_type;location;lat;lon;timestamp;pressure;altitude;pressure_sealevel;temperature;humidity
33163;BME280;29282;45.656;11.302;2023-10-09T00:00:11;99033.06;;;22.40;58.64
33163;BME280;29282;45.656;11.302;2023-10-09T00:02:55;99036.63;;;22.41;58.56
33163;BME280;29282;45.656;11.302;2023-10-09T00:05:20;99032.28;;;22.40;58.79
33163;BME280;29282;45.656;11.302;2023-10-09T00:08:04;99028.72;;;22.39;58.80
33163;BME280;29282;45.656;11.302;2023-10-09T00:10:30;99025.16;;;22.39;58.80
33163;BME280;29282;45.656;11.302;2023-10-09T00:13:02;99030.66;;;22.39;58.84
33163;BME280;29282;45.656;11.302;2023-10-09T00:15:28;99031.47;;;22.39;58.87
33163;BME280;29282;45.656;11.302;2023-10-09T00:17:58;99031.47;;;22.39;58.38
33163;BME280;29282;45.656;11.302;2023-10-09T00:20:23;99021.56;;;22.38;58.85
33163;BME280;29282;45.656;11.302;2023-10-09T00:23:03;99018.78;;;22.38;58.88
33163;BME280;29282;45.656;11.302;2023-10-09T00:25:37;99013.28;;;22.38;58.77
33163;BME280;29282;45.656;11.302;2023-10-09T00:28:10;99022.38;;;22.39;58.42
33163;BME280;29282;45.656;11.302;2023-10-09T00:30:40;99018.78;;;22.38;58.31
33163;BME280;29282;45.656;11.302;2023-10-09T00:33:06;99016.03;;;22.38;58.43
33163;BME280;29282;45.656;11.302;2023-10-09T00:35:37;99022.03;;;22.40;58.51
33163;BME280;29282;45.656;11.302;2023-10-09T00:38:09;99020.75;;;22.38;58.51
33163;BME280;29282;45.656;11.302;2023-10-09T00:40:51;99018.78;;;22.38;58.31
33163;BME280;29282;45.656;11.302;2023-10-09T00:43:29;99020.75;;;22.38;58.62
33163;BME280;29282;45.656;11.302;2023-10-09T00:45:58;99010.50;;;22.38;58.34
33163;BME280;29282;45.656;11.302;2023-10-09T00:48:43;99006.16;;;22.37;58.46
33163;BME280;29282;45.656;11.302;2023-10-09T00:51:15;99005.00;;;22.38;58.24
33163;BME280;29282;45.656;11.302;2023-10-09T00:53:48;99006.16;;;22.37;58.50
33163;BME280;29282;45.656;11.302;2023-10-09T00:56:17;99001.44;;;22.38;58.61
33163;BME280;29282;45.656;11.302;2023-10-09T00:58:53;99000.63;;;22.37;58.72
33163;BME280;29282;45.656;11.302;2023-10-09T01:01:22;98998.66;;;22.38;58.75
33163;BME280;29282;45.656;11.302;2023-10-09T01:03:53;99000.63;;;22.37;58.35
33163;BME280;29282;45.656;11.302;2023-10-09T01:06:19;98989.59;;;22.37;58.31
33163;BME280;29282;45.656;11.302;2023-10-09T01:08:58;98986.03;;;22.37;58.24
33163;BME280;29282;45.656;11.302;2023-10-09T01:11:36;98979.69;;;22.36;58.55
33163;BME280;29282;45.656;11.302;2023-10-09T01:14:28;98979.69;;;22.36;58.25
33163;BME280;29282;45.656;11.302;2023-10-09T01:16:53;98978.91;;;22.36;58.39
33163;BME280;29282;45.656;11.302;2023-10-09T01:19:20;98980.50;;;22.37;58.47
33163;BME280;29282;45.656;11.302;2023-10-09T01:21:50;98979.69;;;22.36;58.61
33163;BME280;29282;45.656;11.302;2023-10-09T01:24:16;98976.94;;;22.36;58.44
33163;BME280;29282;45.656;11.302;2023-10-09T01:26:42;98976.94;;;22.36;58.36
33163;BME280;29282;45.656;11.302;2023-10-09T01:29:23;98974.97;;;22.37;58.53
33163;BME280;29282;45.656;11.302;2023-10-09T01:31:54;98973.38;;;22.36;58.42
33163;BME280;29282;45.656;11.302;2023-10-09T01:34:24;98974.19;;;22.36;58.26
33163;BME280;29282;45.656;11.302;2023-10-09T01:36:51;98969.81;;;22.35;58.25
33163;BME280;29282;45.656;11.302;2023-10-09T01:39:19;98963.47;;;22.35;58.38
33163;BME280;29282;45.656;11.302;2023-10-09T01:41:57;98976.94;;;22.36;58.27
33163;BME280;29282;45.656;11.302;2023-10-09T01:44:32;98967.84;;;22.36;58.35
33163;BME280;29282;45.656;11.302;2023-10-09T01:47:01;98969.81;;;22.35;58.12
33163;BME280;29282;45.656;11.302;2023-10-09T01:49:36;98958.78;;;22.35;58.48
33163;BME280;29282;45.656;11.302;2023-10-09T01:52:03;98957.94;;;22.35;58.14
33163;BME280;29282;45.656;11.302;2023-10-09T01:54:35;98963.47;;;22.35;58.30
33163;BME280;29282;45.656;11.302;2023-10-09T01:57:08;98968.19;;;22.34;58.53
33163;BME280;29282;45.656;11.302;2023-10-09T01:59:48;98958.78;;;22.35;58.53
33163;BME280;29282;45.656;11.302;2023-10-09T02:02:24;98963.47;;;22.35;58.04
33163;BME280;29282;45.656;11.302;2023-10-09T02:04:58;98957.13;;;22.34;58.10
33163;BME280;29282;45.656;11.302;2023-10-09T02:07:39;98959.91;;;22.34;58.40
33163;BME280;29282;45.656;11.302;2023-10-09T02:10:17;98965.41;;;22.34;58.35
33163;BME280;29282;45.656;11.302;2023-10-09T02:13:07;98961.84;;;22.34;58.46
33163;BME280;29282;45.656;11.302;2023-10-09T02:15:36;98953.56;;;22.34;58.14
33163;BME280;29282;45.656;11.302;2023-10-09T02:18:13;98957.13;;;22.34;58.36
33163;BME280;29282;45.656;11.302;2023-10-09T02:20:49;98944.50;;;22.33;58.38
33163;BME280;29282;45.656;11.302;2023-10-09T02:23:40;98946.44;;;22.33;58.30
33163;BME280;29282;45.656;11.302;2023-10-09T02:26:16;98946.44;;;22.33;58.34
33163;BME280;29282;45.656;11.302;2023-10-09T02:28:55;98942.91;;;22.32;58.06
33163;BME280;29282;45.656;11.302;2023-10-09T02:31:27;98944.50;;;22.33;58.28
33163;BME280;29282;45.656;11.302;2023-10-09T02:34:01;98950.00;;;22.33;58.25
33163;BME280;29282;45.656;11.302;2023-10-09T02:36:30;98943.69;;;22.33;58.32
33163;BME280;29282;45.656;11.302;2023-10-09T02:38:55;98948.41;;;22.32;58.11
33163;BME280;29282;45.656;11.302;2023-10-09T02:41:22;98951.19;;;22.32;58.29
33163;BME280;29282;45.656;11.302;2023-10-09T02:43:56;98944.81;;;22.32;58.18
33163;BME280;29282;45.656;11.302;2023-10-09T02:46:23;98950.00;;;22.33;57.94
33163;BME280;29282;45.656;11.302;2023-10-09T02:48:58;98944.03;;;22.31;57.99
33163;BME280;29282;45.656;11.302;2023-10-09T02:51:26;98940.94;;;22.33;58.28
33163;BME280;29282;45.656;11.302;2023-10-09T02:53:56;98942.91;;;22.32;57.90
33163;BME280;29282;45.656;11.302;2023-10-09T02:56:23;98943.69;;;22.33;58.16
33163;BME280;29282;45.656;11.302;2023-10-09T02:58:56;98937.38;;;22.32;58.08
33163;BME280;29282;45.656;11.302;2023-10-09T03:01:38;98936.53;;;22.32;57.91
33163;BME280;29282;45.656;11.302;2023-10-09T03:04:04;98933.78;;;22.32;58.12
33163;BME280;29282;45.656;11.302;2023-10-09T03:06:32;98935.75;;;22.31;58.01
33163;BME280;29282;45.656;11.302;2023-10-09T03:09:00;98941.25;;;22.31;58.01
33163;BME280;29282;45.656;11.302;2023-10-09T03:11:25;98940.13;;;22.32;57.92
33163;BME280;29282;45.656;11.302;2023-10-09T03:13:57;98939.31;;;22.32;58.30
33163;BME280;29282;45.656;11.302;2023-10-09T03:16:23;98935.75;;;22.31;57.87
33163;BME280;29282;45.656;11.302;2023-10-09T03:18:51;98927.47;;;22.31;58.12
33163;BME280;29282;45.656;11.302;2023-10-09T03:21:18;98930.22;;;22.31;58.00
33163;BME280;29282;45.656;11.302;2023-10-09T03:23:48;98931.38;;;22.30;57.98
33163;BME280;29282;45.656;11.302;2023-10-09T03:26:17;98936.53;;;22.32;58.13
33163;BME280;29282;45.656;11.302;2023-10-09T03:28:48;98935.75;;;22.31;58.01
33163;BME280;29282;45.656;11.302;2023-10-09T03:31:16;98935.75;;;22.31;57.68
33163;BME280;29282;45.656;11.302;2023-10-09T03:33:42;98930.22;;;22.31;57.98
33163;BME280;29282;45.656;11.302;2023-10-09T03:36:08;98937.69;;;22.31;58.19
33163;BME280;29282;45.656;11.302;2023-10-09T03:38:37;98936.53;;;22.32;58.06
33163;BME280;29282;45.656;11.302;2023-10-09T03:41:07;98930.22;;;22.31;58.19
33163;BME280;29282;45.656;11.302;2023-10-09T03:43:36;98936.09;;;22.30;58.20
33163;BME280;29282;45.656;11.302;2023-10-09T03:46:08;98932.97;;;22.31;57.99
33163;BME280;29282;45.656;11.302;2023-10-09T03:48:54;98931.38;;;22.30;57.75
33163;BME280;29282;45.656;11.302;2023-10-09T03:51:22;98928.63;;;22.30;57.70
33163;BME280;29282;45.656;11.302;2023-10-09T03:53:51;98927.00;;;22.29;58.06
33163;BME280;29282;45.656;11.302;2023-10-09T03:56:20;98929.78;;;22.29;57.85
33163;BME280;29282;45.656;11.302;2023-10-09T03:58:50;98928.63;;;22.30;57.77
33163;BME280;29282;45.656;11.302;2023-10-09T04:01:18;98934.13;;;22.30;57.67
33163;BME280;29282;45.656;11.302;2023-10-09T04:03:52;98932.53;;;22.29;57.93
33163;BME280;29282;45.656;11.302;2023-10-09T04:06:21;98930.56;;;22.30;57.78
33163;BME280;29282;45.656;11.302;2023-10-09T04:08:47;98933.34;;;22.30;58.02
33163;BME280;29282;45.656;11.302;2023-10-09T04:11:16;98932.53;;;22.29;57.83
33163;BME280;29282;45.656;11.302;2023-10-09T04:13:43;98935.28;;;22.29;57.75
33163;BME280;29282;45.656;11.302;2023-10-09T04:16:11;98938.84;;;22.30;57.69
33163;BME280;29282;45.656;11.302;2023-10-09T04:18:56;98937.25;;;22.28;57.95
33163;BME280;29282;45.656;11.302;2023-10-09T04:21:22;98931.38;;;22.30;57.64
33163;BME280;29282;45.656;11.302;2023-10-09T04:24:04;98929.78;;;22.29;57.75
33163;BME280;29282;45.656;11.302;2023-10-09T04:26:43;98927.00;;;22.29;58.06
33163;BME280;29282;45.656;11.302;2023-10-09T04:29:13;98924.25;;;22.29;58.05
33163;BME280;29282;45.656;11.302;2023-10-09T04:31:46;98930.09;;;22.27;57.93
33163;BME280;29282;45.656;11.302;2023-10-09T04:34:20;98929.78;;;22.29;57.61
33163;BME280;29282;45.656;11.302;2023-10-09T04:37:00;98930.91;;;22.28;57.94
33163;BME280;29282;45.656;11.302;2023-10-09T04:39:30;98936.44;;;22.28;57.77
33163;BME280;29282;45.656;11.302;2023-10-09T04:41:58;98926.53;;;22.27;57.84
33163;BME280;29282;45.656;11.302;2023-10-09T04:44:43;98938.38;;;22.27;57.83
33163;BME280;29282;45.656;11.302;2023-10-09T04:47:27;98926.53;;;22.27;57.74
33163;BME280;29282;45.656;11.302;2023-10-09T04:50:09;98940.34;;;22.27;57.88
33163;BME280;29282;45.656;11.302;2023-10-09T04:52:40;98934.81;;;22.27;57.66
33163;BME280;29282;45.656;11.302;2023-10-09T04:55:09;98936.00;;;22.26;57.87
33163;BME280;29282;45.656;11.302;2023-10-09T04:57:42;98942.31;;;22.26;57.64
33163;BME280;29282;45.656;11.302;2023-10-09T05:00:09;98946.66;;;22.27;57.69
33163;BME280;29282;45.656;11.302;2023-10-09T05:02:53;98945.88;;;22.27;57.85
33163;BME280;29282;45.656;11.302;2023-10-09T05:05:32;98945.88;;;22.27;57.90
33163;BME280;29282;45.656;11.302;2023-10-09T05:08:06;98948.97;;;22.25;57.64
33163;BME280;29282;45.656;11.302;2023-10-09T05:10:48;98955.31;;;22.26;57.92
33163;BME280;29282;45.656;11.302;2023-10-09T05:13:41;98953.34;;;22.26;57.73
33163;BME280;29282;45.656;11.302;2023-10-09T05:16:14;98950.59;;;22.26;57.79
33163;BME280;29282;45.656;11.302;2023-10-09T05:18:58;98951.75;;;22.25;57.92
33163;BME280;29282;45.656;11.302;2023-10-09T05:21:34;98952.56;;;22.26;57.88
33163;BME280;29282;45.656;11.302;2023-10-09T05:24:09;98950.91;;;22.25;57.46
33163;BME280;29282;45.656;11.302;2023-10-09T05:26:36;98960.03;;;22.25;57.54
33163;BME280;29282;45.656;11.302;2023-10-09T05:29:20;98948.16;;;22.25;57.77
33163;BME280;29282;45.656;11.302;2023-10-09T05:31:58;98953.69;;;22.25;57.59
33163;BME280;29282;45.656;11.302;2023-10-09T05:34:31;98960.03;;;22.25;57.74
33163;BME280;29282;45.656;11.302;2023-10-09T05:37:06;98963.91;;;22.24;57.87
33163;BME280;29282;45.656;11.302;2023-10-09T05:40:07;98963.59;;;22.26;57.55
33163;BME280;29282;45.656;11.302;2023-10-09T05:42:45;98966.34;;;22.26;57.87
33163;BME280;29282;45.656;11.302;2023-10-09T05:45:22;98967.47;;;22.25;57.78
33163;BME280;29282;45.656;11.302;2023-10-09T05:48:06;98971.06;;;22.25;57.77
33163;BME280;29282;45.656;11.302;2023-10-09T05:50:52;98973.00;;;22.25;57.41
33163;BME280;29282;45.656;11.302;2023-10-09T05:53:20;98975.75;;;22.25;57.72
33163;BME280;29282;45.656;11.302;2023-10-09T05:56:12;98981.28;;;22.25;57.58
33163;BME280;29282;45.656;11.302;2023-10-09T05:58:56;98977.38;;;22.26;57.37
33163;BME280;29282;45.656;11.302;2023-10-09T06:01:40;98976.59;;;22.25;57.22
33163;BME280;29282;45.656;11.302;2023-10-09T06:04:32;98980.16;;;22.26;57.46
33163;BME280;29282;45.656;11.302;2023-10-09T06:07:20;98982.91;;;22.26;57.67
33163;BME280;29282;45.656;11.302;2023-10-09T06:09:50;98981.28;;;22.25;57.48
33163;BME280;29282;45.656;11.302;2023-10-09T06:12:18;98984.88;;;22.25;57.50
33163;BME280;29282;45.656;11.302;2023-10-09T06:15:15;98990.38;;;22.25;57.83
33163;BME280;29282;45.656;11.302;2023-10-09T06:18:16;98988.44;;;22.26;57.66
33163;BME280;29282;45.656;11.302;2023-10-09T06:20:59;98988.44;;;22.26;57.55
33163;BME280;29282;45.656;11.302;2023-10-09T06:23:55;98996.72;;;22.26;57.59
33163;BME280;29282;45.656;11.302;2023-10-09T06:26:39;98993.94;;;22.26;57.50
33163;BME280;29282;45.656;11.302;2023-10-09T06:29:17;98993.94;;;22.26;57.58
33163;BME280;29282;45.656;11.302;2023-10-09T06:31:59;98998.66;;;22.25;57.55
33163;BME280;29282;45.656;11.302;2023-10-09T06:34:49;98999.13;;;22.27;57.84
33163;BME280;29282;45.656;11.302;2023-10-09T06:37:21;99003.84;;;22.27;57.52
33163;BME280;29282;45.656;11.302;2023-10-09T06:39:55;99000.28;;;22.26;57.89
33163;BME280;29282;45.656;11.302;2023-10-09T06:42:24;99010.97;;;22.28;57.92
33163;BME280;29282;45.656;11.302;2023-10-09T06:45:03;99005.91;;;22.30;57.90
33163;BME280;29282;45.656;11.302;2023-10-09T06:47:34;99007.19;;;22.33;57.75
33163;BME280;29282;45.656;11.302;2023-10-09T06:50:12;99008.56;;;22.26;58.14
33163;BME280;29282;45.656;11.302;2023-10-09T06:52:50;99013.97;;;22.23;57.60
33163;BME280;29282;45.656;11.302;2023-10-09T06:55:37;99018.88;;;22.17;57.56
33163;BME280;29282;45.656;11.302;2023-10-09T06:58:21;99020.09;;;22.08;57.07
33163;BME280;29282;45.656;11.302;2023-10-09T07:00:54;99019.66;;;22.05;57.62
33163;BME280;29282;45.656;11.302;2023-10-09T07:03:23;99013.44;;;22.09;56.87
33163;BME280;29282;45.656;11.302;2023-10-09T07:06:18;99009.66;;;22.13;55.88
33163;BME280;29282;45.656;11.302;2023-10-09T07:08:53;99006.25;;;22.16;56.34
33163;BME280;29282;45.656;11.302;2023-10-09T07:11:35;99007.50;;;22.19;55.47
33163;BME280;29282;45.656;11.302;2023-10-09T07:14:16;99007.16;;;22.20;54.82
33163;BME280;29282;45.656;11.302;2023-10-09T07:17:09;99000.16;;;22.23;54.78
33163;BME280;29282;45.656;11.302;2023-10-09T07:19:42;98991.19;;;22.26;54.78
33163;BME280;29282;45.656;11.302;2023-10-09T07:22:09;98989.22;;;22.26;54.95
33163;BME280;29282;45.656;11.302;2023-10-09T07:24:50;98987.28;;;22.27;55.00
33163;BME280;29282;45.656;11.302;2023-10-09T07:27:30;98993.28;;;22.29;54.95
33163;BME280;29282;45.656;11.302;2023-10-09T07:30:18;98994.88;;;22.30;54.98
33163;BME280;29282;45.656;11.302;2023-10-09T07:32:57;98981.06;;;22.30;55.62
33163;BME280;29282;45.656;11.302;2023-10-09T07:35:33;98981.53;;;22.32;55.33
33163;BME280;29282;45.656;11.302;2023-10-09T07:38:26;98985.09;;;22.33;55.20
33163;BME280;29282;45.656;11.302;2023-10-09T07:41:00;98987.88;;;22.33;55.33
33163;BME280;29282;45.656;11.302;2023-10-09T07:43:34;98976.47;;;22.34;55.25
33163;BME280;29282;45.656;11.302;2023-10-09T07:46:16;98983.63;;;22.35;55.33
33163;BME280;29282;45.656;11.302;2023-10-09T07:49:02;98985.22;;;22.36;54.92
33163;BME280;29282;45.656;11.302;2023-10-09T07:51:38;98983.25;;;22.37;54.78
33163;BME280;29282;45.656;11.302;2023-10-09T07:54:09;98978.91;;;22.36;55.39
33163;BME280;29282;45.656;11.302;2023-10-09T07:56:41;98983.25;;;22.37;55.30
33163;BME280;29282;45.656;11.302;2023-10-09T07:59:07;98983.25;;;22.37;54.92
33163;BME280;29282;45.656;11.302;2023-10-09T08:01:56;98981.28;;;22.37;55.14
33163;BME280;29282;45.656;11.302;2023-10-09T08:04:27;98981.28;;;22.37;55.33
33163;BME280;29282;45.656;11.302;2023-10-09T08:07:10;98976.94;;;22.36;55.18
33163;BME280;29282;45.656;11.302;2023-10-09T08:09:47;98978.53;;;22.37;55.34
33163;BME280;29282;45.656;11.302;2023-10-09T08:12:36;98974.63;;;22.38;55.26
33163;BME280;29282;45.656;11.302;2023-10-09T08:15:23;98966.81;;;22.40;54.90
33163;BME280;29282;45.656;11.302;2023-10-09T08:17:54;98971.66;;;22.43;55.00
33163;BME280;29282;45.656;11.302;2023-10-09T08:20:36;98968.41;;;22.41;54.71
33163;BME280;29282;45.656;11.302;2023-10-09T08:23:23;98972.44;;;22.44;54.84
33163;BME280;29282;45.656;11.302;2023-10-09T08:26:01;98972.13;;;22.45;55.00
33163;BME280;29282;45.656;11.302;2023-10-09T08:28:47;98969.34;;;22.45;55.19
33163;BME280;29282;45.656;11.302;2023-10-09T08:31:16;98975.69;;;22.46;54.86
33163;BME280;29282;45.656;11.302;2023-10-09T08:34:02;98969.34;;;22.45;55.18
33163;BME280;29282;45.656;11.302;2023-10-09T08:36:29;98969.34;;;22.45;54.96
33163;BME280;29282;45.656;11.302;2023-10-09T08:39:02;98969.00;;;22.47;54.97
33163;BME280;29282;45.656;11.302;2023-10-09T08:41:43;98969.78;;;22.47;54.97
33163;BME280;29282;45.656;11.302;2023-10-09T08:44:12;98968.66;;;22.48;54.76
33163;BME280;29282;45.656;11.302;2023-10-09T08:46:40;98963.47;;;22.47;55.21
33163;BME280;29282;45.656;11.302;2023-10-09T08:49:08;98960.38;;;22.48;54.77
33163;BME280;29282;45.656;11.302;2023-10-09T08:51:36;98956.78;;;22.48;54.90
33163;BME280;29282;45.656;11.302;2023-10-09T08:54:03;98961.97;;;22.49;55.13
33163;BME280;29282;45.656;11.302;2023-10-09T08:56:30;98950.94;;;22.49;55.15
33163;BME280;29282;45.656;11.302;2023-10-09T08:58:57;98948.63;;;22.51;54.94
33163;BME280;29282;45.656;11.302;2023-10-09T09:01:23;98946.22;;;22.50;55.35
33163;BME280;29282;45.656;11.302;2023-10-09T09:03:51;98945.84;;;22.51;55.43
33163;BME280;29282;45.656;11.302;2023-10-09T09:06:23;98938.41;;;22.52;55.34
33163;BME280;29282;45.656;11.302;2023-10-09T09:08:50;98937.56;;;22.51;54.76
33163;BME280;29282;45.656;11.302;2023-10-09T09:11:24;98940.81;;;22.54;55.27
33163;BME280;29282;45.656;11.302;2023-10-09T09:16:23;98934.94;;;22.55;54.99
33163;BME280;29282;45.656;11.302;2023-10-09T09:21:29;98934.13;;;22.55;55.04
33163;BME280;29282;45.656;11.302;2023-10-09T09:23:57;98929.75;;;22.54;55.55
33163;BME280;29282;45.656;11.302;2023-10-09T09:26:36;98938.50;;;22.56;54.95
33163;BME280;29282;45.656;11.302;2023-10-09T09:29:15;98929.06;;;22.57;55.45
33163;BME280;29282;45.656;11.302;2023-10-09T09:31:54;98927.91;;;22.58;55.06
33163;BME280;29282;45.656;11.302;2023-10-09T09:34:23;98927.09;;;22.57;55.05
33163;BME280;29282;45.656;11.302;2023-10-09T09:36:55;98927.09;;;22.57;55.28
33163;BME280;29282;45.656;11.302;2023-10-09T09:39:31;98925.63;;;22.60;55.07
33163;BME280;29282;45.656;11.302;2023-10-09T09:42:01;98918.50;;;22.59;55.26
33163;BME280;29282;45.656;11.302;2023-10-09T09:44:34;98915.72;;;22.59;55.27
33163;BME280;29282;45.656;11.302;2023-10-09T09:47:09;98923.19;;;22.58;55.70
33163;BME280;29282;45.656;11.302;2023-10-09T09:49:41;98912.97;;;22.59;55.40
33163;BME280;29282;45.656;11.302;2023-10-09T09:52:08;98915.38;;;22.60;55.57
33163;BME280;29282;45.656;11.302;2023-10-09T09:54:38;98900.75;;;22.60;55.32
33163;BME280;29282;45.656;11.302;2023-10-09T09:57:04;98913.88;;;22.63;55.41
33163;BME280;29282;45.656;11.302;2023-10-09T09:59:40;98905.91;;;22.61;55.26
33163;BME280;29282;45.656;11.302;2023-10-09T10:02:35;98910.66;;;22.61;55.71
33163;BME280;29282;45.656;11.302;2023-10-09T10:05:05;98904.44;;;22.64;55.60
33163;BME280;29282;45.656;11.302;2023-10-09T10:07:33;98915.03;;;22.62;55.58
33163;BME280;29282;45.656;11.302;2023-10-09T10:10:36;98904.78;;;22.62;55.40
33163;BME280;29282;45.656;11.302;2023-10-09T10:16:06;98897.75;;;22.65;55.54
33163;BME280;29282;45.656;11.302;2023-10-09T10:19:02;98893.38;;;22.64;55.35
33163;BME280;29282;45.656;11.302;2023-10-09T10:21:43;98884.28;;;22.63;55.59
33163;BME280;29282;45.656;11.302;2023-10-09T10:29:35;98882.34;;;22.64;55.60
33163;BME280;29282;45.656;11.302;2023-10-09T10:32:06;98880.72;;;22.63;55.38
33163;BME280;29282;45.656;11.302;2023-10-09T10:34:52;98879.94;;;22.62;55.75
33163;BME280;29282;45.656;11.302;2023-10-09T10:37:34;98877.50;;;22.61;55.62
33163;BME280;29282;45.656;11.302;2023-10-09T10:40:04;98872.44;;;22.63;56.10
33163;BME280;29282;45.656;11.302;2023-10-09T10:42:47;98863.38;;;22.62;55.71
33163;BME280;29282;45.656;11.302;2023-10-09T10:45:23;98864.16;;;22.63;56.09
33163;BME280;29282;45.656;11.302;2023-10-09T10:48:11;98865.75;;;22.64;56.09
33163;BME280;29282;45.656;11.302;2023-10-09T10:51:04;98855.50;;;22.64;56.58
33163;BME280;29282;45.656;11.302;2023-10-09T10:53:30;98859.91;;;22.65;56.50
33163;BME280;29282;45.656;11.302;2023-10-09T10:56:13;98848.50;;;22.67;56.54
33163;BME280;29282;45.656;11.302;2023-10-09T10:58:41;98847.69;;;22.66;56.34
33163;BME280;29282;45.656;11.302;2023-10-09T11:01:20;98836.28;;;22.68;56.51
33163;BME280;29282;45.656;11.302;2023-10-09T11:03:48;98836.28;;;22.68;56.64
33163;BME280;29282;45.656;11.302;2023-10-09T11:06:31;98833.53;;;22.68;56.31
33163;BME280;29282;45.656;11.302;2023-10-09T11:09:09;98822.03;;;22.66;56.57
33163;BME280;29282;45.656;11.302;2023-10-09T11:12:05;98826.41;;;22.67;56.48
33163;BME280;29282;45.656;11.302;2023-10-09T11:14:50;98822.47;;;22.68;56.56
33163;BME280;29282;45.656;11.302;2023-10-09T11:17:36;98815.81;;;22.69;56.43
33163;BME280;29282;45.656;11.302;2023-10-09T11:20:05;98811.09;;;22.69;56.58
33163;BME280;29282;45.656;11.302;2023-10-09T11:22:51;98805.19;;;22.71;56.61
33163;BME280;29282;45.656;11.302;2023-10-09T11:25:36;98817.88;;;22.72;56.70
33163;BME280;29282;45.656;11.302;2023-10-09T11:28:40;98801.31;;;22.72;56.32
33163;BME280;29282;45.656;11.302;2023-10-09T11:31:14;98804.06;;;22.72;56.46
33163;BME280;29282;45.656;11.302;2023-10-09T11:33:51;98795.41;;;22.73;56.52
33163;BME280;29282;45.656;11.302;2023-10-09T11:36:18;98788.72;;;22.74;56.69
33163;BME280;29282;45.656;11.302;2023-10-09T11:39:27;98790.69;;;22.74;56.58
33163;BME280;29282;45.656;11.302;2023-10-09T11:42:09;98797.00;;;22.74;56.90
33163;BME280;29282;45.656;11.302;2023-10-09T11:44:42;98787.94;;;22.74;57.09
33163;BME280;29282;45.656;11.302;2023-10-09T11:47:12;98794.63;;;22.73;56.75
33163;BME280;29282;45.656;11.302;2023-10-09T11:52:22;98789.47;;;22.71;56.89
33163;BME280;29282;45.656;11.302;2023-10-09T11:55:21;98793.34;;;22.70;56.85
33163;BME280;29282;45.656;11.302;2023-10-09T11:57:51;98786.22;;;22.69;57.10
33163;BME280;29282;45.656;11.302;2023-10-09T12:00:16;98777.56;;;22.71;57.15
33163;BME280;29282;45.656;11.302;2023-10-09T12:02:57;98776.78;;;22.70;57.01
33163;BME280;29282;45.656;11.302;2023-10-09T12:05:33;98775.66;;;22.71;57.17
33163;BME280;29282;45.656;11.302;2023-10-09T12:07:59;98777.25;;;22.72;57.04
33163;BME280;29282;45.656;11.302;2023-10-09T12:10:27;98770.56;;;22.73;57.29
33163;BME280;29282;45.656;11.302;2023-10-09T12:12:55;98772.28;;;22.78;57.10
33163;BME280;29282;45.656;11.302;2023-10-09T12:15:24;98768.34;;;22.79;57.21
33163;BME280;29282;45.656;11.302;2023-10-09T12:17:50;98764.44;;;22.80;56.90
33163;BME280;29282;45.656;11.302;2023-10-09T12:20:18;98764.88;;;22.82;56.95
33163;BME280;29282;45.656;11.302;2023-10-09T12:23:01;98752.66;;;22.83;56.92
33163;BME280;29282;45.656;11.302;2023-10-09T12:25:27;98754.97;;;22.81;57.19
33163;BME280;29282;45.656;11.302;2023-10-09T12:28:00;98742.31;;;22.80;57.02
33163;BME280;29282;45.656;11.302;2023-10-09T12:30:28;98744.75;;;22.82;57.06
33163;BME280;29282;45.656;11.302;2023-10-09T12:32:55;98739.66;;;22.84;57.18
33163;BME280;29282;45.656;11.302;2023-10-09T12:35:25;98741.28;;;22.85;56.87
33163;BME280;29282;45.656;11.302;2023-10-09T12:37:54;98741.28;;;22.85;56.76
33163;BME280;29282;45.656;11.302;2023-10-09T12:40:22;98741.28;;;22.85;56.95
33163;BME280;29282;45.656;11.302;2023-10-09T12:42:54;98745.66;;;22.86;57.04
33163;BME280;29282;45.656;11.302;2023-10-09T12:45:24;98742.50;;;22.87;57.17
33163;BME280;29282;45.656;11.302;2023-10-09T12:47:58;98734.59;;;22.86;56.98
33163;BME280;29282;45.656;11.302;2023-10-09T12:50:37;98737.00;;;22.87;56.92
33163;BME280;29282;45.656;11.302;2023-10-09T12:53:10;98732.63;;;22.86;57.17
33163;BME280;29282;45.656;11.302;2023-10-09T12:55:40;98729.06;;;22.86;57.32
33163;BME280;29282;45.656;11.302;2023-10-09T12:58:11;98726.72;;;22.88;57.13
33163;BME280;29282;45.656;11.302;2023-10-09T13:00:41;98718.44;;;22.88;56.99
33163;BME280;29282;45.656;11.302;2023-10-09T13:03:14;98719.63;;;22.87;57.19
33163;BME280;29282;45.656;11.302;2023-10-09T13:05:50;98717.66;;;22.87;57.15
33163;BME280;29282;45.656;11.302;2023-10-09T13:08:33;98714.88;;;22.87;57.17
33163;BME280;29282;45.656;11.302;2023-10-09T13:11:03;98717.31;;;22.89;57.28
33163;BME280;29282;45.656;11.302;2023-10-09T13:13:39;98716.50;;;22.88;57.25
33163;BME280;29282;45.656;11.302;2023-10-09T13:16:10;98707.41;;;22.88;57.17
33163;BME280;29282;45.656;11.302;2023-10-09T13:18:48;98711.78;;;22.89;56.97
33163;BME280;29282;45.656;11.302;2023-10-09T13:21:24;98712.59;;;22.89;57.23
33163;BME280;29282;45.656;11.302;2023-10-09T13:23:52;98713.75;;;22.88;57.21
33163;BME280;29282;45.656;11.302;2023-10-09T13:26:20;98713.75;;;22.88;57.19
33163;BME280;29282;45.656;11.302;2023-10-09T13:28:54;98699.56;;;22.90;57.13
33163;BME280;29282;45.656;11.302;2023-10-09T13:31:21;98710.16;;;22.88;57.56
33163;BME280;29282;45.656;11.302;2023-10-09T13:33:51;98707.84;;;22.90;57.32
33163;BME280;29282;45.656;11.302;2023-10-09T13:36:20;98701.53;;;22.89;57.22
33163;BME280;29282;45.656;11.302;2023-10-09T13:39:07;98694.03;;;22.90;57.37
33163;BME280;29282;45.656;11.302;2023-10-09T13:42:00;98692.06;;;22.90;57.03
33163;BME280;29282;45.656;11.302;2023-10-09T13:44:33;98689.78;;;22.92;57.34
33163;BME280;29282;45.656;11.302;2023-10-09T13:47:01;98690.94;;;22.91;56.95